sensor_id;sensor_type;location;lat;lon;timestamp;P1;durP1;ratioP1;P2;durP2;ratioP2
62941;SDS011;49042;47.318;19.874;2023-01-13T00:00:02;36.85;;;20.23;;
62941;SDS011;49042;47.318;19.874;2023-01-13T00:03:06;62.90;;;23.87;;
62941;SDS011;49042;47.318;19.874;2023-01-13T00:06:08;64.12;;;22.87;;
62941;SDS011;49042;47.318;19.874;2023-01-13T00:09:14;70.72;;;23.75;;
62941;SDS011;49042;47.318;19.874;2023-01-13T00:12:16;43.42;;;19.40;;
62941;SDS011;49042;47.318;19.874;2023-01-13T00:15:17;39.13;;;17.90;;
62941;SDS011;49042;47.318;19.874;2023-01-13T00:18:19;37.28;;;18.55;;
62941;SDS011;49042;47.318;19.874;2023-01-13T00:21:23;40.28;;;18.25;;
62941;SDS011;49042;47.318;19.874;2023-01-13T00:24:25;49.22;;;22.70;;
62941;SDS011;49042;47.318;19.874;2023-01-13T00:27:27;94.13;;;38.03;;
62941;SDS011;49042;47.318;19.874;2023-01-13T00:30:29;73.45;;;30.77;;
62941;SDS011;49042;47.318;19.874;2023-01-13T00:33:32;48.33;;;22.85;;
62941;SDS011;49042;47.318;19.874;2023-01-13T00:36:35;58.22;;;22.20;;
62941;SDS011;49042;47.318;19.874;2023-01-13T00:39:37;53.10;;;26.20;;
62941;SDS011;49042;47.318;19.874;2023-01-13T00:42:39;72.87;;;27.17;;
62941;SDS011;49042;47.318;19.874;2023-01-13T00:46:00;30.48;;;18.85;;
62941;SDS011;49042;47.318;19.874;2023-01-13T00:49:03;31.02;;;18.02;;
62941;SDS011;49042;47.318;19.874;2023-01-13T00:52:04;31.02;;;16.40;;
62941;SDS011;49042;47.318;19.874;2023-01-13T00:55:07;29.80;;;18.75;;
62941;SDS011;49042;47.318;19.874;2023-01-13T00:58:09;43.53;;;17.70;;
62941;SDS011;49042;47.318;19.874;2023-01-13T01:01:13;30.12;;;18.45;;
62941;SDS011;49042;47.318;19.874;2023-01-13T01:04:17;38.92;;;22.85;;
62941;SDS011;49042;47.318;19.874;2023-01-13T01:07:19;33.00;;;19.37;;
62941;SDS011;49042;47.318;19.874;2023-01-13T01:10:21;29.77;;;17.80;;
62941;SDS011;49042;47.318;19.874;2023-01-13T01:13:23;33.25;;;18.80;;
62941;SDS011;49042;47.318;19.874;2023-01-13T01:16:25;42.08;;;19.90;;
62941;SDS011;49042;47.318;19.874;2023-01-13T01:19:30;34.83;;;19.58;;
62941;SDS011;49042;47.318;19.874;2023-01-13T01:22:32;35.78;;;19.80;;
62941;SDS011;49042;47.318;19.874;2023-01-13T01:25:34;34.97;;;18.00;;
62941;SDS011;49042;47.318;19.874;2023-01-13T01:28:36;29.75;;;18.90;;
62941;SDS011;49042;47.318;19.874;2023-01-13T01:31:37;31.27;;;19.42;;
62941;SDS011;49042;47.318;19.874;2023-01-13T01:34:40;27.73;;;18.27;;
62941;SDS011;49042;47.318;19.874;2023-01-13T01:37:42;34.65;;;20.60;;
62941;SDS011;49042;47.318;19.874;2023-01-13T01:40:44;32.92;;;19.85;;
62941;SDS011;49042;47.318;19.874;2023-01-13T01:47:07;30.62;;;19.65;;
62941;SDS011;49042;47.318;19.874;2023-01-13T01:50:14;29.05;;;17.73;;
62941;SDS011;49042;47.318;19.874;2023-01-13T01:53:17;34.25;;;18.17;;
62941;SDS011;49042;47.318;19.874;2023-01-13T01:56:24;29.55;;;18.67;;
62941;SDS011;49042;47.318;19.874;2023-01-13T01:59:26;28.23;;;17.45;;
62941;SDS011;49042;47.318;19.874;2023-01-13T02:02:32;25.55;;;17.75;;
62941;SDS011;49042;47.318;19.874;2023-01-13T02:05:34;27.20;;;17.23;;
62941;SDS011;49042;47.318;19.874;2023-01-13T02:08:37;27.80;;;17.90;;
62941;SDS011;49042;47.318;19.874;2023-01-13T02:11:41;25.30;;;17.12;;
62941;SDS011;49042;47.318;19.874;2023-01-13T02:15:09;23.52;;;15.60;;
62941;SDS011;49042;47.318;19.874;2023-01-13T02:28:44;35.13;;;18.48;;
62941;SDS011;49042;47.318;19.874;2023-01-13T02:32:39;28.50;;;17.85;;
62941;SDS011;49042;47.318;19.874;2023-01-13T02:39:16;35.70;;;18.35;;
62941;SDS011;49042;47.318;19.874;2023-01-13T02:42:31;26.05;;;17.55;;
62941;SDS011;49042;47.318;19.874;2023-01-13T02:46:16;25.65;;;16.70;;
62941;SDS011;49042;47.318;19.874;2023-01-13T02:49:23;27.15;;;17.67;;
62941;SDS011;49042;47.318;19.874;2023-01-13T02:52:50;28.98;;;18.17;;
62941;SDS011;49042;47.318;19.874;2023-01-13T02:55:55;26.55;;;16.75;;
62941;SDS011;49042;47.318;19.874;2023-01-13T02:58:59;24.70;;;16.37;;
62941;SDS011;49042;47.318;19.874;2023-01-13T03:02:02;27.73;;;17.10;;
62941;SDS011;49042;47.318;19.874;2023-01-13T03:05:05;28.12;;;17.05;;
62941;SDS011;49042;47.318;19.874;2023-01-13T03:11:18;30.98;;;18.20;;
62941;SDS011;49042;47.318;19.874;2023-01-13T03:14:22;23.45;;;15.85;;
62941;SDS011;49042;47.318;19.874;2023-01-13T03:17:41;21.52;;;15.35;;
62941;SDS011;49042;47.318;19.874;2023-01-13T03:24:15;24.98;;;16.15;;
62941;SDS011;49042;47.318;19.874;2023-01-13T03:27:30;26.00;;;15.48;;
62941;SDS011;49042;47.318;19.874;2023-01-13T03:30:45;23.10;;;16.40;;
62941;SDS011;49042;47.318;19.874;2023-01-13T03:33:53;26.02;;;16.75;;
62941;SDS011;49042;47.318;19.874;2023-01-13T03:37:01;26.75;;;16.12;;
62941;SDS011;49042;47.318;19.874;2023-01-13T03:40:27;23.73;;;15.90;;
62941;SDS011;49042;47.318;19.874;2023-01-13T03:43:34;24.40;;;15.32;;
62941;SDS011;49042;47.318;19.874;2023-01-13T03:47:21;26.42;;;16.12;;
62941;SDS011;49042;47.318;19.874;2023-01-13T03:50:35;22.87;;;14.05;;
62941;SDS011;49042;47.318;19.874;2023-01-13T03:53:51;25.62;;;14.52;;
62941;SDS011;49042;47.318;19.874;2023-01-13T03:57:01;20.27;;;13.48;;
62941;SDS011;49042;47.318;19.874;2023-01-13T04:00:07;20.58;;;14.50;;
62941;SDS011;49042;47.318;19.874;2023-01-13T04:03:14;18.10;;;12.52;;
62941;SDS011;49042;47.318;19.874;2023-01-13T04:06:24;21.77;;;13.38;;
62941;SDS011;49042;47.318;19.874;2023-01-13T04:09:53;20.12;;;13.45;;
62941;SDS011;49042;47.318;19.874;2023-01-13T04:13:06;19.62;;;13.52;;
62941;SDS011;49042;47.318;19.874;2023-01-13T04:16:13;18.42;;;12.80;;
62941;SDS011;49042;47.318;19.874;2023-01-13T04:19:15;22.67;;;12.45;;
62941;SDS011;49042;47.318;19.874;2023-01-13T04:22:17;21.08;;;13.27;;
62941;SDS011;49042;47.318;19.874;2023-01-13T04:25:19;23.62;;;12.82;;
62941;SDS011;49042;47.318;19.874;2023-01-13T04:28:21;22.42;;;13.10;;
62941;SDS011;49042;47.318;19.874;2023-01-13T04:31:23;23.75;;;12.95;;
62941;SDS011;49042;47.318;19.874;2023-01-13T04:34:25;22.62;;;13.05;;
62941;SDS011;49042;47.318;19.874;2023-01-13T04:37:28;29.63;;;12.18;;
62941;SDS011;49042;47.318;19.874;2023-01-13T04:40:31;21.02;;;13.35;;
62941;SDS011;49042;47.318;19.874;2023-01-13T04:43:33;18.75;;;12.20;;
62941;SDS011;49042;47.318;19.874;2023-01-13T04:46:35;20.23;;;12.48;;
62941;SDS011;49042;47.318;19.874;2023-01-13T04:49:36;18.73;;;11.90;;
62941;SDS011;49042;47.318;19.874;2023-01-13T04:52:38;18.52;;;11.35;;
62941;SDS011;49042;47.318;19.874;2023-01-13T04:55:40;15.73;;;11.35;;
62941;SDS011;49042;47.318;19.874;2023-01-13T04:58:42;21.48;;;12.30;;
62941;SDS011;49042;47.318;19.874;2023-01-13T05:01:43;18.65;;;12.02;;
62941;SDS011;49042;47.318;19.874;2023-01-13T05:04:46;19.02;;;12.48;;
62941;SDS011;49042;47.318;19.874;2023-01-13T05:07:48;21.75;;;14.50;;
62941;SDS011;49042;47.318;19.874;2023-01-13T05:10:49;20.20;;;12.48;;
62941;SDS011;49042;47.318;19.874;2023-01-13T05:13:51;19.70;;;12.13;;
62941;SDS011;49042;47.318;19.874;2023-01-13T05:17:14;18.87;;;12.05;;
62941;SDS011;49042;47.318;19.874;2023-01-13T05:20:21;22.33;;;12.32;;
62941;SDS011;49042;47.318;19.874;2023-01-13T05:23:23;21.42;;;13.15;;
62941;SDS011;49042;47.318;19.874;2023-01-13T05:27:00;24.85;;;12.23;;
62941;SDS011;49042;47.318;19.874;2023-01-13T05:30:02;24.50;;;14.57;;
62941;SDS011;49042;47.318;19.874;2023-01-13T05:33:04;27.62;;;17.05;;
62941;SDS011;49042;47.318;19.874;2023-01-13T05:36:06;20.60;;;12.82;;
62941;SDS011;49042;47.318;19.874;2023-01-13T05:39:08;21.92;;;12.40;;
62941;SDS011;49042;47.318;19.874;2023-01-13T05:42:10;31.00;;;18.80;;
62941;SDS011;49042;47.318;19.874;2023-01-13T05:45:30;25.75;;;12.98;;
62941;SDS011;49042;47.318;19.874;2023-01-13T05:48:33;21.87;;;12.98;;
62941;SDS011;49042;47.318;19.874;2023-01-13T05:54:47;21.77;;;11.43;;
62941;SDS011;49042;47.318;19.874;2023-01-13T05:57:49;21.50;;;11.05;;
62941;SDS011;49042;47.318;19.874;2023-01-13T06:00:51;18.27;;;12.35;;
62941;SDS011;49042;47.318;19.874;2023-01-13T06:03:53;44.40;;;28.67;;
62941;SDS011;49042;47.318;19.874;2023-01-13T06:06:55;22.80;;;12.98;;
62941;SDS011;49042;47.318;19.874;2023-01-13T06:09:56;23.23;;;11.12;;
62941;SDS011;49042;47.318;19.874;2023-01-13T06:12:59;32.92;;;13.62;;
62941;SDS011;49042;47.318;19.874;2023-01-13T06:16:03;18.10;;;11.40;;
62941;SDS011;49042;47.318;19.874;2023-01-13T06:19:05;26.30;;;11.12;;
62941;SDS011;49042;47.318;19.874;2023-01-13T06:22:17;30.27;;;11.98;;
62941;SDS011;49042;47.318;19.874;2023-01-13T06:25:57;22.30;;;11.32;;
62941;SDS011;49042;47.318;19.874;2023-01-13T06:29:02;16.85;;;10.57;;
62941;SDS011;49042;47.318;19.874;2023-01-13T06:32:05;23.33;;;11.02;;
62941;SDS011;49042;47.318;19.874;2023-01-13T06:35:12;21.92;;;11.60;;
62941;SDS011;49042;47.318;19.874;2023-01-13T06:38:17;21.40;;;10.38;;
62941;SDS011;49042;47.318;19.874;2023-01-13T06:41:21;19.00;;;10.30;;
62941;SDS011;49042;47.318;19.874;2023-01-13T06:44:44;25.50;;;10.05;;
62941;SDS011;49042;47.318;19.874;2023-01-13T06:47:46;27.55;;;10.88;;
62941;SDS011;49042;47.318;19.874;2023-01-13T06:50:48;48.85;;;10.35;;
62941;SDS011;49042;47.318;19.874;2023-01-13T06:53:50;29.23;;;10.85;;
62941;SDS011;49042;47.318;19.874;2023-01-13T06:56:51;52.53;;;10.80;;
62941;SDS011;49042;47.318;19.874;2023-01-13T06:59:53;32.45;;;10.45;;
62941;SDS011;49042;47.318;19.874;2023-01-13T07:03:06;34.55;;;10.73;;
62941;SDS011;49042;47.318;19.874;2023-01-13T07:06:10;26.60;;;10.57;;
62941;SDS011;49042;47.318;19.874;2023-01-13T07:09:12;20.98;;;11.15;;
62941;SDS011;49042;47.318;19.874;2023-01-13T07:12:13;24.63;;;9.52;;
62941;SDS011;49042;47.318;19.874;2023-01-13T07:15:15;23.40;;;11.38;;
62941;SDS011;49042;47.318;19.874;2023-01-13T07:18:20;23.67;;;11.88;;
62941;SDS011;49042;47.318;19.874;2023-01-13T07:21:22;16.60;;;10.43;;
62941;SDS011;49042;47.318;19.874;2023-01-13T07:24:23;34.03;;;10.38;;
62941;SDS011;49042;47.318;19.874;2023-01-13T07:27:25;26.08;;;10.85;;
62941;SDS011;49042;47.318;19.874;2023-01-13T07:30:27;38.45;;;12.73;;
62941;SDS011;49042;47.318;19.874;2023-01-13T07:33:29;31.05;;;14.57;;
62941;SDS011;49042;47.318;19.874;2023-01-13T07:36:34;28.38;;;14.13;;
62941;SDS011;49042;47.318;19.874;2023-01-13T07:39:36;47.17;;;11.32;;
62941;SDS011;49042;47.318;19.874;2023-01-13T07:42:39;26.48;;;12.05;;
62941;SDS011;49042;47.318;19.874;2023-01-13T07:46:00;23.98;;;10.75;;
62941;SDS011;49042;47.318;19.874;2023-01-13T07:49:05;30.20;;;11.12;;
62941;SDS011;49042;47.318;19.874;2023-01-13T07:52:09;28.15;;;10.93;;
62941;SDS011;49042;47.318;19.874;2023-01-13T07:55:12;32.83;;;12.23;;
62941;SDS011;49042;47.318;19.874;2023-01-13T07:58:15;21.00;;;10.13;;
62941;SDS011;49042;47.318;19.874;2023-01-13T08:01:17;25.95;;;11.10;;
62941;SDS011;49042;47.318;19.874;2023-01-13T08:04:19;27.65;;;10.70;;
62941;SDS011;49042;47.318;19.874;2023-01-13T08:07:22;19.58;;;10.90;;
62941;SDS011;49042;47.318;19.874;2023-01-13T08:10:26;30.70;;;10.48;;
62941;SDS011;49042;47.318;19.874;2023-01-13T08:13:28;25.77;;;11.82;;
62941;SDS011;49042;47.318;19.874;2023-01-13T08:16:32;30.77;;;11.23;;
62941;SDS011;49042;47.318;19.874;2023-01-13T08:19:34;22.20;;;11.57;;
62941;SDS011;49042;47.318;19.874;2023-01-13T08:22:36;23.23;;;11.27;;
62941;SDS011;49042;47.318;19.874;2023-01-13T08:25:38;19.87;;;12.57;;
62941;SDS011;49042;47.318;19.874;2023-01-13T08:28:40;28.60;;;10.95;;
62941;SDS011;49042;47.318;19.874;2023-01-13T08:31:42;18.10;;;11.38;;
62941;SDS011;49042;47.318;19.874;2023-01-13T08:34:44;25.50;;;12.30;;
62941;SDS011;49042;47.318;19.874;2023-01-13T08:37:46;21.37;;;12.73;;
62941;SDS011;49042;47.318;19.874;2023-01-13T08:40:50;39.38;;;18.27;;
62941;SDS011;49042;47.318;19.874;2023-01-13T08:43:52;98.05;;;46.83;;
62941;SDS011;49042;47.318;19.874;2023-01-13T08:46:54;44.85;;;26.23;;
62941;SDS011;49042;47.318;19.874;2023-01-13T08:49:56;34.25;;;22.65;;
62941;SDS011;49042;47.318;19.874;2023-01-13T08:52:58;28.00;;;16.87;;
62941;SDS011;49042;47.318;19.874;2023-01-13T08:56:05;25.70;;;12.07;;
62941;SDS011;49042;47.318;19.874;2023-01-13T08:59:12;30.15;;;12.60;;
62941;SDS011;49042;47.318;19.874;2023-01-13T09:02:15;18.62;;;12.10;;
62941;SDS011;49042;47.318;19.874;2023-01-13T09:05:19;22.55;;;12.50;;
62941;SDS011;49042;47.318;19.874;2023-01-13T09:08:21;25.88;;;16.48;;
62941;SDS011;49042;47.318;19.874;2023-01-13T09:11:30;33.03;;;13.62;;
62941;SDS011;49042;47.318;19.874;2023-01-13T09:14:53;48.95;;;28.05;;
62941;SDS011;49042;47.318;19.874;2023-01-13T09:17:54;65.37;;;30.10;;
62941;SDS011;49042;47.318;19.874;2023-01-13T09:20:57;33.58;;;18.35;;
62941;SDS011;49042;47.318;19.874;2023-01-13T09:23:59;26.62;;;16.65;;
62941;SDS011;49042;47.318;19.874;2023-01-13T09:27:01;22.58;;;15.75;;
62941;SDS011;49042;47.318;19.874;2023-01-13T09:30:03;22.45;;;13.55;;
62941;SDS011;49042;47.318;19.874;2023-01-13T09:33:05;44.08;;;23.55;;
62941;SDS011;49042;47.318;19.874;2023-01-13T09:36:25;33.80;;;15.07;;
62941;SDS011;49042;47.318;19.874;2023-01-13T09:39:27;35.85;;;15.13;;
62941;SDS011;49042;47.318;19.874;2023-01-13T09:42:34;39.00;;;13.45;;
62941;SDS011;49042;47.318;19.874;2023-01-13T09:46:50;17.50;;;10.75;;
62941;SDS011;49042;47.318;19.874;2023-01-13T09:49:47;34.55;;;15.45;;
62941;SDS011;49042;47.318;19.874;2023-01-13T09:52:49;20.55;;;10.55;;
62941;SDS011;49042;47.318;19.874;2023-01-13T09:55:52;49.53;;;12.02;;
62941;SDS011;49042;47.318;19.874;2023-01-13T09:58:55;28.58;;;14.52;;
62941;SDS011;49042;47.318;19.874;2023-01-13T10:01:59;22.75;;;14.50;;
62941;SDS011;49042;47.318;19.874;2023-01-13T10:08:43;36.08;;;17.40;;
62941;SDS011;49042;47.318;19.874;2023-01-13T10:11:47;30.40;;;15.32;;
62941;SDS011;49042;47.318;19.874;2023-01-13T10:15:13;37.50;;;13.62;;
62941;SDS011;49042;47.318;19.874;2023-01-13T10:28:31;19.27;;;11.77;;
62941;SDS011;49042;47.318;19.874;2023-01-13T10:31:33;26.15;;;13.88;;
62941;SDS011;49042;47.318;19.874;2023-01-13T10:34:45;37.97;;;18.83;;
62941;SDS011;49042;47.318;19.874;2023-01-13T10:38:09;55.72;;;31.23;;
62941;SDS011;49042;47.318;19.874;2023-01-13T10:41:18;38.80;;;19.30;;
62941;SDS011;49042;47.318;19.874;2023-01-13T10:44:26;62.70;;;34.90;;
62941;SDS011;49042;47.318;19.874;2023-01-13T10:47:29;47.10;;;23.02;;
62941;SDS011;49042;47.318;19.874;2023-01-13T10:50:33;38.80;;;21.05;;
62941;SDS011;49042;47.318;19.874;2023-01-13T10:53:44;70.60;;;32.15;;
62941;SDS011;49042;47.318;19.874;2023-01-13T10:56:47;76.12;;;36.45;;
62941;SDS011;49042;47.318;19.874;2023-01-13T10:59:50;85.85;;;41.15;;
62941;SDS011;49042;47.318;19.874;2023-01-13T11:06:24;69.78;;;31.20;;
62941;SDS011;49042;47.318;19.874;2023-01-13T11:09:29;30.23;;;16.62;;
62941;SDS011;49042;47.318;19.874;2023-01-13T11:12:34;28.95;;;15.43;;
62941;SDS011;49042;47.318;19.874;2023-01-13T11:19:06;32.13;;;14.95;;
62941;SDS011;49042;47.318;19.874;2023-01-13T11:22:16;30.65;;;14.70;;
62941;SDS011;49042;47.318;19.874;2023-01-13T11:25:24;30.27;;;15.50;;
62941;SDS011;49042;47.318;19.874;2023-01-13T11:39:19;32.95;;;16.90;;
62941;SDS011;49042;47.318;19.874;2023-01-13T11:46:05;31.00;;;15.27;;
62941;SDS011;49042;47.318;19.874;2023-01-13T11:49:15;29.17;;;14.70;;
62941;SDS011;49042;47.318;19.874;2023-01-13T11:52:32;33.85;;;16.25;;
62941;SDS011;49042;47.318;19.874;2023-01-13T11:59:17;36.53;;;17.50;;
62941;SDS011;49042;47.318;19.874;2023-01-13T12:05:40;37.00;;;17.85;;
62941;SDS011;49042;47.318;19.874;2023-01-13T12:08:50;35.80;;;17.42;;
62941;SDS011;49042;47.318;19.874;2023-01-13T12:15:27;38.45;;;16.50;;
62941;SDS011;49042;47.318;19.874;2023-01-13T12:22:26;27.77;;;14.48;;
62941;SDS011;49042;47.318;19.874;2023-01-13T12:25:33;34.38;;;15.80;;
62941;SDS011;49042;47.318;19.874;2023-01-13T12:28:43;36.85;;;17.65;;
62941;SDS011;49042;47.318;19.874;2023-01-13T12:31:50;27.90;;;14.70;;
62941;SDS011;49042;47.318;19.874;2023-01-13T12:45:31;32.08;;;16.02;;
62941;SDS011;49042;47.318;19.874;2023-01-13T12:48:44;37.22;;;18.17;;
62941;SDS011;49042;47.318;19.874;2023-01-13T12:52:08;36.13;;;18.10;;
62941;SDS011;49042;47.318;19.874;2023-01-13T12:55:18;37.67;;;18.05;;
62941;SDS011;49042;47.318;19.874;2023-01-13T12:58:27;42.33;;;20.35;;
62941;SDS011;49042;47.318;19.874;2023-01-13T13:01:35;37.30;;;17.85;;
62941;SDS011;49042;47.318;19.874;2023-01-13T13:07:50;35.05;;;18.25;;
62941;SDS011;49042;47.318;19.874;2023-01-13T13:10:55;35.60;;;17.17;;
62941;SDS011;49042;47.318;19.874;2023-01-13T13:14:03;43.85;;;18.70;;
62941;SDS011;49042;47.318;19.874;2023-01-13T13:24:00;159.87;;;50.17;;
62941;SDS011;49042;47.318;19.874;2023-01-13T13:30:33;125.60;;;40.28;;
62941;SDS011;49042;47.318;19.874;2023-01-13T13:33:46;51.60;;;22.92;;
62941;SDS011;49042;47.318;19.874;2023-01-13T13:40:16;52.58;;;23.58;;
62941;SDS011;49042;47.318;19.874;2023-01-13T13:43:42;57.60;;;26.25;;
62941;SDS011;49042;47.318;19.874;2023-01-13T13:47:05;48.17;;;23.25;;
62941;SDS011;49042;47.318;19.874;2023-01-13T13:50:11;45.63;;;22.37;;
62941;SDS011;49042;47.318;19.874;2023-01-13T13:53:16;55.92;;;24.67;;
62941;SDS011;49042;47.318;19.874;2023-01-13T13:56:25;41.58;;;21.45;;
62941;SDS011;49042;47.318;19.874;2023-01-13T13:59:28;43.58;;;20.58;;
62941;SDS011;49042;47.318;19.874;2023-01-13T14:02:33;46.15;;;21.48;;
62941;SDS011;49042;47.318;19.874;2023-01-13T14:05:37;40.12;;;20.65;;
62941;SDS011;49042;47.318;19.874;2023-01-13T14:08:39;57.67;;;23.80;;
62941;SDS011;49042;47.318;19.874;2023-01-13T14:14:59;44.10;;;19.87;;
62941;SDS011;49042;47.318;19.874;2023-01-13T14:18:02;48.33;;;21.80;;
62941;SDS011;49042;47.318;19.874;2023-01-13T14:24:22;52.50;;;24.15;;
62941;SDS011;49042;47.318;19.874;2023-01-13T14:27:26;47.25;;;21.17;;
62941;SDS011;49042;47.318;19.874;2023-01-13T14:30:29;51.10;;;21.92;;
62941;SDS011;49042;47.318;19.874;2023-01-13T14:33:40;51.47;;;24.75;;
62941;SDS011;49042;47.318;19.874;2023-01-13T14:36:47;57.38;;;27.83;;
62941;SDS011;49042;47.318;19.874;2023-01-13T14:39:51;53.17;;;25.40;;
62941;SDS011;49042;47.318;19.874;2023-01-13T14:42:59;55.53;;;30.02;;
62941;SDS011;49042;47.318;19.874;2023-01-13T14:46:02;48.67;;;23.70;;
62941;SDS011;49042;47.318;19.874;2023-01-13T14:49:04;54.65;;;24.48;;
62941;SDS011;49042;47.318;19.874;2023-01-13T14:52:18;79.50;;;42.17;;
62941;SDS011;49042;47.318;19.874;2023-01-13T14:58:34;75.12;;;36.13;;
62941;SDS011;49042;47.318;19.874;2023-01-13T15:01:39;61.45;;;29.27;;
62941;SDS011;49042;47.318;19.874;2023-01-13T15:04:42;38.13;;;20.37;;
62941;SDS011;49042;47.318;19.874;2023-01-13T15:10:58;67.00;;;35.80;;
62941;SDS011;49042;47.318;19.874;2023-01-13T15:14:02;76.15;;;36.67;;
62941;SDS011;49042;47.318;19.874;2023-01-13T15:17:15;60.58;;;29.08;;
62941;SDS011;49042;47.318;19.874;2023-01-13T15:20:18;69.47;;;34.40;;
62941;SDS011;49042;47.318;19.874;2023-01-13T15:23:22;93.43;;;41.13;;
62941;SDS011;49042;47.318;19.874;2023-01-13T15:26:25;64.43;;;28.30;;
62941;SDS011;49042;47.318;19.874;2023-01-13T15:29:28;59.85;;;27.75;;
62941;SDS011;49042;47.318;19.874;2023-01-13T15:32:30;59.90;;;32.22;;
62941;SDS011;49042;47.318;19.874;2023-01-13T15:35:32;79.00;;;39.75;;
62941;SDS011;49042;47.318;19.874;2023-01-13T15:38:34;73.40;;;37.60;;
62941;SDS011;49042;47.318;19.874;2023-01-13T15:41:35;65.20;;;34.08;;
62941;SDS011;49042;47.318;19.874;2023-01-13T15:44:56;53.60;;;28.85;;
62941;SDS011;49042;47.318;19.874;2023-01-13T15:48:18;54.95;;;27.15;;
62941;SDS011;49042;47.318;19.874;2023-01-13T15:51:21;50.03;;;25.73;;
62941;SDS011;49042;47.318;19.874;2023-01-13T15:54:23;46.58;;;21.33;;
62941;SDS011;49042;47.318;19.874;2023-01-13T15:57:29;46.25;;;21.00;;
62941;SDS011;49042;47.318;19.874;2023-01-13T16:00:34;43.33;;;22.35;;
62941;SDS011;49042;47.318;19.874;2023-01-13T16:03:36;39.20;;;19.75;;
62941;SDS011;49042;47.318;19.874;2023-01-13T16:06:38;47.47;;;21.25;;
62941;SDS011;49042;47.318;19.874;2023-01-13T16:09:39;48.15;;;24.12;;
62941;SDS011;49042;47.318;19.874;2023-01-13T16:12:41;48.95;;;22.60;;
62941;SDS011;49042;47.318;19.874;2023-01-13T16:15:47;47.58;;;22.10;;
62941;SDS011;49042;47.318;19.874;2023-01-13T16:18:50;50.03;;;25.98;;
62941;SDS011;49042;47.318;19.874;2023-01-13T16:21:53;72.75;;;36.85;;
62941;SDS011;49042;47.318;19.874;2023-01-13T16:24:55;60.12;;;31.52;;
62941;SDS011;49042;47.318;19.874;2023-01-13T16:27:57;59.00;;;29.75;;
62941;SDS011;49042;47.318;19.874;2023-01-13T16:30:59;49.22;;;26.12;;
62941;SDS011;49042;47.318;19.874;2023-01-13T16:34:02;50.83;;;25.73;;
62941;SDS011;49042;47.318;19.874;2023-01-13T16:37:08;50.85;;;26.10;;
62941;SDS011;49042;47.318;19.874;2023-01-13T16:43:24;58.20;;;28.67;;
62941;SDS011;49042;47.318;19.874;2023-01-13T16:46:27;63.00;;;30.62;;
62941;SDS011;49042;47.318;19.874;2023-01-13T16:49:30;63.65;;;32.97;;
62941;SDS011;49042;47.318;19.874;2023-01-13T16:52:32;63.63;;;30.58;;
62941;SDS011;49042;47.318;19.874;2023-01-13T16:55:34;79.68;;;36.15;;
62941;SDS011;49042;47.318;19.874;2023-01-13T16:58:37;78.70;;;35.50;;
62941;SDS011;49042;47.318;19.874;2023-01-13T17:01:39;58.78;;;26.17;;
62941;SDS011;49042;47.318;19.874;2023-01-13T17:04:43;77.85;;;35.45;;
62941;SDS011;49042;47.318;19.874;2023-01-13T17:07:45;56.70;;;27.83;;
62941;SDS011;49042;47.318;19.874;2023-01-13T17:10:49;69.22;;;35.85;;
62941;SDS011;49042;47.318;19.874;2023-01-13T17:13:51;60.45;;;29.52;;
62941;SDS011;49042;47.318;19.874;2023-01-13T17:16:54;52.60;;;26.37;;
62941;SDS011;49042;47.318;19.874;2023-01-13T17:19:58;60.17;;;28.35;;
62941;SDS011;49042;47.318;19.874;2023-01-13T17:23:00;63.17;;;32.63;;
62941;SDS011;49042;47.318;19.874;2023-01-13T17:26:03;41.17;;;22.00;;
62941;SDS011;49042;47.318;19.874;2023-01-13T17:29:06;100.70;;;39.92;;
62941;SDS011;49042;47.318;19.874;2023-01-13T17:32:13;60.65;;;25.67;;
62941;SDS011;49042;47.318;19.874;2023-01-13T17:35:19;59.45;;;27.58;;
62941;SDS011;49042;47.318;19.874;2023-01-13T17:38:27;75.68;;;33.25;;
62941;SDS011;49042;47.318;19.874;2023-01-13T17:41:29;66.78;;;31.10;;
62941;SDS011;49042;47.318;19.874;2023-01-13T17:44:31;57.30;;;25.80;;
62941;SDS011;49042;47.318;19.874;2023-01-13T17:47:33;58.53;;;25.58;;
62941;SDS011;49042;47.318;19.874;2023-01-13T17:50:35;89.50;;;34.03;;
62941;SDS011;49042;47.318;19.874;2023-01-13T17:53:37;113.50;;;40.88;;
62941;SDS011;49042;47.318;19.874;2023-01-13T17:56:42;105.50;;;46.08;;
62941;SDS011;49042;47.318;19.874;2023-01-13T17:59:44;62.90;;;29.30;;
62941;SDS011;49042;47.318;19.874;2023-01-13T18:02:48;105.22;;;43.80;;
62941;SDS011;49042;47.318;19.874;2023-01-13T18:05:50;75.25;;;34.70;;
62941;SDS011;49042;47.318;19.874;2023-01-13T18:08:52;68.62;;;30.98;;
62941;SDS011;49042;47.318;19.874;2023-01-13T18:11:55;70.43;;;34.78;;
62941;SDS011;49042;47.318;19.874;2023-01-13T18:14:57;78.22;;;36.80;;
62941;SDS011;49042;47.318;19.874;2023-01-13T18:17:58;81.68;;;38.22;;
62941;SDS011;49042;47.318;19.874;2023-01-13T18:21:02;65.50;;;31.83;;
62941;SDS011;49042;47.318;19.874;2023-01-13T18:24:23;63.78;;;28.33;;
62941;SDS011;49042;47.318;19.874;2023-01-13T18:27:43;91.18;;;49.35;;
62941;SDS011;49042;47.318;19.874;2023-01-13T18:30:46;68.05;;;33.10;;
62941;SDS011;49042;47.318;19.874;2023-01-13T18:33:54;90.38;;;45.45;;
62941;SDS011;49042;47.318;19.874;2023-01-13T18:36:58;73.82;;;38.90;;
62941;SDS011;49042;47.318;19.874;2023-01-13T18:40:01;67.65;;;33.53;;
62941;SDS011;49042;47.318;19.874;2023-01-13T18:43:04;61.00;;;32.65;;
62941;SDS011;49042;47.318;19.874;2023-01-13T18:46:07;64.55;;;36.15;;
62941;SDS011;49042;47.318;19.874;2023-01-13T18:49:08;58.35;;;30.83;;
62941;SDS011;49042;47.318;19.874;2023-01-13T18:52:11;47.88;;;24.37;;
62941;SDS011;49042;47.318;19.874;2023-01-13T18:55:13;40.85;;;22.30;;
62941;SDS011;49042;47.318;19.874;2023-01-13T18:58:15;47.50;;;22.67;;
62941;SDS011;49042;47.318;19.874;2023-01-13T19:01:18;40.70;;;23.25;;
62941;SDS011;49042;47.318;19.874;2023-01-13T19:04:23;44.90;;;24.42;;
62941;SDS011;49042;47.318;19.874;2023-01-13T19:07:26;46.72;;;25.45;;
62941;SDS011;49042;47.318;19.874;2023-01-13T19:10:29;50.15;;;26.95;;
62941;SDS011;49042;47.318;19.874;2023-01-13T19:13:33;59.17;;;31.35;;
62941;SDS011;49042;47.318;19.874;2023-01-13T19:16:36;61.83;;;30.67;;
62941;SDS011;49042;47.318;19.874;2023-01-13T19:22:44;47.75;;;25.12;;
62941;SDS011;49042;47.318;19.874;2023-01-13T19:25:56;49.85;;;23.73;;
62941;SDS011;49042;47.318;19.874;2023-01-13T19:29:01;49.38;;;26.98;;
62941;SDS011;49042;47.318;19.874;2023-01-13T19:32:03;31.27;;;19.98;;
62941;SDS011;49042;47.318;19.874;2023-01-13T19:35:06;40.53;;;22.30;;
62941;SDS011;49042;47.318;19.874;2023-01-13T19:38:09;44.83;;;23.27;;
62941;SDS011;49042;47.318;19.874;2023-01-13T19:41:11;72.43;;;36.42;;
62941;SDS011;49042;47.318;19.874;2023-01-13T19:44:34;103.97;;;47.22;;
62941;SDS011;49042;47.318;19.874;2023-01-13T19:47:54;97.60;;;45.17;;
62941;SDS011;49042;47.318;19.874;2023-01-13T19:51:00;143.27;;;57.03;;
62941;SDS011;49042;47.318;19.874;2023-01-13T19:54:03;144.23;;;60.97;;